sensor_id;sensor_type;location;lat;lon;timestamp;temperature;humidity
54158;DHT22;40065;49.894;10.358;2023-03-01T00:03:18;-0.30;99.90
54158;DHT22;40065;49.894;10.358;2023-03-01T00:08:20;-0.40;99.90
54158;DHT22;40065;49.894;10.358;2023-03-01T00:13:22;-0.50;99.90
54158;DHT22;40065;49.894;10.358;2023-03-01T00:18:24;-0.40;99.90
54158;DHT22;40065;49.894;10.358;2023-03-01T00:23:26;-0.30;99.90
54158;DHT22;40065;49.894;10.358;2023-03-01T00:28:28;-0.30;99.90
54158;DHT22;40065;49.894;10.358;2023-03-01T00:33:30;-0.40;99.90
54158;DHT22;40065;49.894;10.358;2023-03-01T00:38:39;-0.50;99.90
54158;DHT22;40065;49.894;10.358;2023-03-01T00:43:41;-0.60;99.90
54158;DHT22;40065;49.894;10.358;2023-03-01T00:48:44;-0.70;99.90
54158;DHT22;40065;49.894;10.358;2023-03-01T00:53:46;-0.90;99.90
54158;DHT22;40065;49.894;10.358;2023-03-01T00:58:48;-0.90;99.90
54158;DHT22;40065;49.894;10.358;2023-03-01T01:03:56;-0.80;99.90
54158;DHT22;40065;49.894;10.358;2023-03-01T01:08:58;-0.80;99.90
54158;DHT22;40065;49.894;10.358;2023-03-01T01:14:00;-0.80;99.90
54158;DHT22;40065;49.894;10.358;2023-03-01T01:19:04;-0.70;99.90
54158;DHT22;40065;49.894;10.358;2023-03-01T01:24:06;-0.70;99.90
54158;DHT22;40065;49.894;10.358;2023-03-01T01:29:09;-0.60;99.90
54158;DHT22;40065;49.894;10.358;2023-03-01T01:34:17;-0.20;99.90
54158;DHT22;40065;49.894;10.358;2023-03-01T01:39:20;-0.20;99.90
54158;DHT22;40065;49.894;10.358;2023-03-01T01:44:25;-0.10;99.90
54158;DHT22;40065;49.894;10.358;2023-03-01T01:54:40;-0.20;99.90
54158;DHT22;40065;49.894;10.358;2023-03-01T01:59:47;-0.10;99.90
54158;DHT22;40065;49.894;10.358;2023-03-01T02:05:04;0.00;99.90
54158;DHT22;40065;49.894;10.358;2023-03-01T02:10:13;0.00;99.90
54158;DHT22;40065;49.894;10.358;2023-03-01T02:15:15;-0.10;99.90
54158;DHT22;40065;49.894;10.358;2023-03-01T02:30:44;-0.40;99.90
54158;DHT22;40065;49.894;10.358;2023-03-01T02:36:15;-0.60;99.90
54158;DHT22;40065;49.894;10.358;2023-03-01T02:41:19;-0.70;99.90
54158;DHT22;40065;49.894;10.358;2023-03-01T02:46:24;-0.70;99.90
54158;DHT22;40065;49.894;10.358;2023-03-01T02:51:42;-0.60;99.90
54158;DHT22;40065;49.894;10.358;2023-03-01T02:56:45;-0.80;99.90
54158;DHT22;40065;49.894;10.358;2023-03-01T03:01:52;-0.80;99.90
54158;DHT22;40065;49.894;10.358;2023-03-01T03:06:54;-0.70;99.90
54158;DHT22;40065;49.894;10.358;2023-03-01T03:11:56;-0.70;99.90
54158;DHT22;40065;49.894;10.358;2023-03-01T03:16:58;-0.70;99.90
54158;DHT22;40065;49.894;10.358;2023-03-01T03:22:00;-0.70;99.90
54158;DHT22;40065;49.894;10.358;2023-03-01T03:27:06;-0.70;99.90
54158;DHT22;40065;49.894;10.358;2023-03-01T03:32:08;-0.70;99.90
54158;DHT22;40065;49.894;10.358;2023-03-01T03:37:10;-0.70;99.90
54158;DHT22;40065;49.894;10.358;2023-03-01T03:42:32;-0.70;99.90
54158;DHT22;40065;49.894;10.358;2023-03-01T03:47:34;-0.70;99.90
54158;DHT22;40065;49.894;10.358;2023-03-01T03:52:36;-0.80;99.90
54158;DHT22;40065;49.894;10.358;2023-03-01T03:57:39;-0.80;99.90
54158;DHT22;40065;49.894;10.358;2023-03-01T04:02:44;-0.80;99.90
54158;DHT22;40065;49.894;10.358;2023-03-01T04:07:47;-0.90;99.90
54158;DHT22;40065;49.894;10.358;2023-03-01T04:12:48;-1.00;99.90
54158;DHT22;40065;49.894;10.358;2023-03-01T04:17:52;-1.00;99.90
54158;DHT22;40065;49.894;10.358;2023-03-01T04:23:05;-1.00;99.90
54158;DHT22;40065;49.894;10.358;2023-03-01T04:28:15;-0.90;99.90
54158;DHT22;40065;49.894;10.358;2023-03-01T04:33:18;-0.80;99.90
54158;DHT22;40065;49.894;10.358;2023-03-01T04:38:20;-0.80;99.90
54158;DHT22;40065;49.894;10.358;2023-03-01T04:43:23;-0.80;99.90
54158;DHT22;40065;49.894;10.358;2023-03-01T04:48:24;-0.70;99.90
54158;DHT22;40065;49.894;10.358;2023-03-01T04:53:27;-0.60;99.90
54158;DHT22;40065;49.894;10.358;2023-03-01T04:58:29;-0.70;99.90
54158;DHT22;40065;49.894;10.358;2023-03-01T05:03:30;-0.80;99.90
54158;DHT22;40065;49.894;10.358;2023-03-01T05:08:32;-0.70;99.90
54158;DHT22;40065;49.894;10.358;2023-03-01T05:13:37;-0.80;99.90
54158;DHT22;40065;49.894;10.358;2023-03-01T05:18:40;-0.90;99.90
54158;DHT22;40065;49.894;10.358;2023-03-01T05:23:42;-0.80;99.90
54158;DHT22;40065;49.894;10.358;2023-03-01T05:28:44;-0.90;99.90
54158;DHT22;40065;49.894;10.358;2023-03-01T05:33:46;-0.90;99.90
54158;DHT22;40065;49.894;10.358;2023-03-01T05:38:48;-0.80;99.90
54158;DHT22;40065;49.894;10.358;2023-03-01T05:43:50;-0.70;99.90
54158;DHT22;40065;49.894;10.358;2023-03-01T05:48:51;-0.70;99.90
54158;DHT22;40065;49.894;10.358;2023-03-01T05:53:53;-0.70;99.90
54158;DHT22;40065;49.894;10.358;2023-03-01T05:58:55;-0.70;99.90
54158;DHT22;40065;49.894;10.358;2023-03-01T06:03:57;-0.40;99.90
54158;DHT22;40065;49.894;10.358;2023-03-01T06:08:59;-0.40;99.90
54158;DHT22;40065;49.894;10.358;2023-03-01T06:14:00;-0.50;99.90
54158;DHT22;40065;49.894;10.358;2023-03-01T06:19:02;-0.40;99.90
54158;DHT22;40065;49.894;10.358;2023-03-01T06:24:05;-0.30;99.90
54158;DHT22;40065;49.894;10.358;2023-03-01T06:29:10;-0.30;99.90
54158;DHT22;40065;49.894;10.358;2023-03-01T06:34:11;-0.30;99.90
54158;DHT22;40065;49.894;10.358;2023-03-01T06:39:15;-0.30;99.90
54158;DHT22;40065;49.894;10.358;2023-03-01T06:44:18;0.00;99.90
54158;DHT22;40065;49.894;10.358;2023-03-01T06:49:20;0.10;99.90
54158;DHT22;40065;49.894;10.358;2023-03-01T06:54:22;1.00;99.90
54158;DHT22;40065;49.894;10.358;2023-03-01T06:59:24;1.60;99.90
54158;DHT22;40065;49.894;10.358;2023-03-01T07:04:26;2.30;99.90
54158;DHT22;40065;49.894;10.358;2023-03-01T07:09:30;5.00;97.10
54158;DHT22;40065;49.894;10.358;2023-03-01T07:14:31;7.70;92.20
54158;DHT22;40065;49.894;10.358;2023-03-01T07:19:33;8.60;86.30
54158;DHT22;40065;49.894;10.358;2023-03-01T07:24:35;9.60;80.30
54158;DHT22;40065;49.894;10.358;2023-03-01T07:29:37;10.00;79.60
54158;DHT22;40065;49.894;10.358;2023-03-01T07:34:39;10.70;76.80
54158;DHT22;40065;49.894;10.358;2023-03-01T07:39:41;11.10;79.80
54158;DHT22;40065;49.894;10.358;2023-03-01T07:44:42;12.90;72.10
54158;DHT22;40065;49.894;10.358;2023-03-01T07:49:44;11.30;70.30
54158;DHT22;40065;49.894;10.358;2023-03-01T07:54:46;14.00;68.30
54158;DHT22;40065;49.894;10.358;2023-03-01T07:59:48;14.50;64.00
54158;DHT22;40065;49.894;10.358;2023-03-01T08:04:49;13.60;63.60
54158;DHT22;40065;49.894;10.358;2023-03-01T08:09:51;13.20;64.90
54158;DHT22;40065;49.894;10.358;2023-03-01T08:14:53;12.20;65.20
54158;DHT22;40065;49.894;10.358;2023-03-01T08:19:55;12.60;65.60
54158;DHT22;40065;49.894;10.358;2023-03-01T08:24:57;12.70;65.70
54158;DHT22;40065;49.894;10.358;2023-03-01T08:29:59;12.50;65.00
54158;DHT22;40065;49.894;10.358;2023-03-01T08:35:00;12.60;63.80
54158;DHT22;40065;49.894;10.358;2023-03-01T08:40:03;13.50;63.80
54158;DHT22;40065;49.894;10.358;2023-03-01T08:45:10;12.40;64.50
54158;DHT22;40065;49.894;10.358;2023-03-01T08:50:12;12.60;63.20
54158;DHT22;40065;49.894;10.358;2023-03-01T08:55:14;12.50;63.30
54158;DHT22;40065;49.894;10.358;2023-03-01T09:00:18;12.30;64.90
54158;DHT22;40065;49.894;10.358;2023-03-01T09:05:20;12.50;64.60
54158;DHT22;40065;49.894;10.358;2023-03-01T09:10:23;12.80;62.30
54158;DHT22;40065;49.894;10.358;2023-03-01T09:15:25;11.60;63.30
54158;DHT22;40065;49.894;10.358;2023-03-01T09:20:27;12.00;63.20
54158;DHT22;40065;49.894;10.358;2023-03-01T09:25:28;11.10;65.10
54158;DHT22;40065;49.894;10.358;2023-03-01T09:30:30;11.40;64.80
54158;DHT22;40065;49.894;10.358;2023-03-01T09:35:32;12.50;62.80
54158;DHT22;40065;49.894;10.358;2023-03-01T09:40:34;12.80;63.70
54158;DHT22;40065;49.894;10.358;2023-03-01T09:45:41;12.00;63.30
54158;DHT22;40065;49.894;10.358;2023-03-01T09:50:45;12.40;62.40
54158;DHT22;40065;49.894;10.358;2023-03-01T09:55:52;11.80;62.90
54158;DHT22;40065;49.894;10.358;2023-03-01T10:01:00;12.90;59.60
54158;DHT22;40065;49.894;10.358;2023-03-01T10:06:10;11.60;61.80
54158;DHT22;40065;49.894;10.358;2023-03-01T10:11:37;10.70;64.20
54158;DHT22;40065;49.894;10.358;2023-03-01T10:17:02;11.50;63.50
54158;DHT22;40065;49.894;10.358;2023-03-01T10:22:28;12.30;60.70
54158;DHT22;40065;49.894;10.358;2023-03-01T10:28:10;12.80;61.30
54158;DHT22;40065;49.894;10.358;2023-03-01T10:33:19;11.30;63.50
54158;DHT22;40065;49.894;10.358;2023-03-01T10:38:22;12.70;60.20
54158;DHT22;40065;49.894;10.358;2023-03-01T10:43:25;12.20;62.00
54158;DHT22;40065;49.894;10.358;2023-03-01T10:48:28;12.70;62.10
54158;DHT22;40065;49.894;10.358;2023-03-01T10:53:34;12.20;62.50
54158;DHT22;40065;49.894;10.358;2023-03-01T10:59:03;11.50;62.00
54158;DHT22;40065;49.894;10.358;2023-03-01T11:09:17;12.30;61.60
54158;DHT22;40065;49.894;10.358;2023-03-01T11:14:24;11.50;62.70
54158;DHT22;40065;49.894;10.358;2023-03-01T11:19:28;10.90;63.70
54158;DHT22;40065;49.894;10.358;2023-03-01T11:24:45;10.90;64.50
54158;DHT22;40065;49.894;10.358;2023-03-01T11:30:17;11.00;63.60
54158;DHT22;40065;49.894;10.358;2023-03-01T11:35:23;11.70;63.20
54158;DHT22;40065;49.894;10.358;2023-03-01T11:40:35;11.80;62.20
54158;DHT22;40065;49.894;10.358;2023-03-01T11:46:01;11.30;63.30
54158;DHT22;40065;49.894;10.358;2023-03-01T11:57:03;10.80;64.70
54158;DHT22;40065;49.894;10.358;2023-03-01T12:12:56;11.30;65.60
54158;DHT22;40065;49.894;10.358;2023-03-01T12:23:37;10.80;66.30
54158;DHT22;40065;49.894;10.358;2023-03-01T12:39:47;11.10;65.70
54158;DHT22;40065;49.894;10.358;2023-03-01T12:50:40;10.80;66.10
54158;DHT22;40065;49.894;10.358;2023-03-01T12:55:43;10.90;66.00
54158;DHT22;40065;49.894;10.358;2023-03-01T13:11:44;10.70;66.80
54158;DHT22;40065;49.894;10.358;2023-03-01T13:16:46;10.70;66.90
54158;DHT22;40065;49.894;10.358;2023-03-01T13:21:53;10.70;66.50
54158;DHT22;40065;49.894;10.358;2023-03-01T13:27:21;11.10;66.60
54158;DHT22;40065;49.894;10.358;2023-03-01T13:32:31;10.60;66.80
54158;DHT22;40065;49.894;10.358;2023-03-01T13:37:45;10.50;66.80
54158;DHT22;40065;49.894;10.358;2023-03-01T13:42:48;11.20;65.30
54158;DHT22;40065;49.894;10.358;2023-03-01T13:48:22;10.30;66.80
54158;DHT22;40065;49.894;10.358;2023-03-01T13:53:27;10.90;66.40
54158;DHT22;40065;49.894;10.358;2023-03-01T13:58:31;10.50;67.00
54158;DHT22;40065;49.894;10.358;2023-03-01T14:03:40;10.20;67.10
54158;DHT22;40065;49.894;10.358;2023-03-01T14:08:44;10.80;67.10
54158;DHT22;40065;49.894;10.358;2023-03-01T14:19:27;10.70;67.30
54158;DHT22;40065;49.894;10.358;2023-03-01T14:24:38;10.20;68.70
54158;DHT22;40065;49.894;10.358;2023-03-01T14:29:41;10.40;67.60
54158;DHT22;40065;49.894;10.358;2023-03-01T14:34:45;10.00;68.60
54158;DHT22;40065;49.894;10.358;2023-03-01T14:39:47;10.10;69.00
54158;DHT22;40065;49.894;10.358;2023-03-01T14:44:52;10.60;68.90
54158;DHT22;40065;49.894;10.358;2023-03-01T14:49:58;10.10;68.70
54158;DHT22;40065;49.894;10.358;2023-03-01T14:55:04;10.50;68.20
54158;DHT22;40065;49.894;10.358;2023-03-01T15:00:07;10.50;69.50
54158;DHT22;40065;49.894;10.358;2023-03-01T15:05:10;10.50;69.50
54158;DHT22;40065;49.894;10.358;2023-03-01T15:10:20;10.50;69.50
54158;DHT22;40065;49.894;10.358;2023-03-01T15:20:33;10.20;69.00
54158;DHT22;40065;49.894;10.358;2023-03-01T15:25:37;10.40;70.50
54158;DHT22;40065;49.894;10.358;2023-03-01T15:30:40;10.00;69.20
54158;DHT22;40065;49.894;10.358;2023-03-01T15:35:43;10.00;70.30
54158;DHT22;40065;49.894;10.358;2023-03-01T15:40:50;10.00;71.70
54158;DHT22;40065;49.894;10.358;2023-03-01T15:45:57;9.60;72.70
54158;DHT22;40065;49.894;10.358;2023-03-01T15:50:59;9.00;74.90
54158;DHT22;40065;49.894;10.358;2023-03-01T15:56:03;8.70;74.10
54158;DHT22;40065;49.894;10.358;2023-03-01T16:01:12;8.80;75.70
54158;DHT22;40065;49.894;10.358;2023-03-01T16:06:14;8.40;76.50
54158;DHT22;40065;49.894;10.358;2023-03-01T16:11:18;8.20;77.20
54158;DHT22;40065;49.894;10.358;2023-03-01T16:16:20;8.10;78.50
54158;DHT22;40065;49.894;10.358;2023-03-01T16:21:24;7.80;79.60
54158;DHT22;40065;49.894;10.358;2023-03-01T16:26:26;7.60;80.90
54158;DHT22;40065;49.894;10.358;2023-03-01T16:31:28;7.40;81.60
54158;DHT22;40065;49.894;10.358;2023-03-01T16:36:31;7.30;82.00
54158;DHT22;40065;49.894;10.358;2023-03-01T16:41:33;7.10;83.10
54158;DHT22;40065;49.894;10.358;2023-03-01T16:46:35;6.90;83.70
54158;DHT22;40065;49.894;10.358;2023-03-01T16:51:36;6.80;84.90
54158;DHT22;40065;49.894;10.358;2023-03-01T16:56:38;6.50;86.30
54158;DHT22;40065;49.894;10.358;2023-03-01T17:01:41;6.40;87.30
54158;DHT22;40065;49.894;10.358;2023-03-01T17:06:43;6.40;87.30
54158;DHT22;40065;49.894;10.358;2023-03-01T17:11:45;6.20;88.00
54158;DHT22;40065;49.894;10.358;2023-03-01T17:16:47;6.00;90.00
54158;DHT22;40065;49.894;10.358;2023-03-01T17:21:48;6.00;90.30
54158;DHT22;40065;49.894;10.358;2023-03-01T17:26:50;5.60;90.90
54158;DHT22;40065;49.894;10.358;2023-03-01T17:31:52;5.70;90.90
54158;DHT22;40065;49.894;10.358;2023-03-01T17:36:56;5.60;91.40
54158;DHT22;40065;49.894;10.358;2023-03-01T17:41:58;5.40;92.10
54158;DHT22;40065;49.894;10.358;2023-03-01T17:47:01;5.40;92.40
54158;DHT22;40065;49.894;10.358;2023-03-01T17:52:03;5.30;93.00
54158;DHT22;40065;49.894;10.358;2023-03-01T17:57:05;4.90;94.10
54158;DHT22;40065;49.894;10.358;2023-03-01T18:02:11;4.90;94.20
54158;DHT22;40065;49.894;10.358;2023-03-01T18:07:13;4.80;94.90
54158;DHT22;40065;49.894;10.358;2023-03-01T18:12:15;4.80;94.90
54158;DHT22;40065;49.894;10.358;2023-03-01T18:17:20;4.60;95.50
54158;DHT22;40065;49.894;10.358;2023-03-01T18:22:25;4.50;95.80
54158;DHT22;40065;49.894;10.358;2023-03-01T18:27:26;4.40;95.90
54158;DHT22;40065;49.894;10.358;2023-03-01T18:32:28;4.30;96.40
54158;DHT22;40065;49.894;10.358;2023-03-01T18:37:30;4.40;96.00
54158;DHT22;40065;49.894;10.358;2023-03-01T18:42:32;4.50;96.00
54158;DHT22;40065;49.894;10.358;2023-03-01T18:47:34;4.40;96.40
54158;DHT22;40065;49.894;10.358;2023-03-01T18:52:35;4.30;96.70
54158;DHT22;40065;49.894;10.358;2023-03-01T18:57:37;4.30;96.80
54158;DHT22;40065;49.894;10.358;2023-03-01T19:02:39;4.10;97.30
54158;DHT22;40065;49.894;10.358;2023-03-01T19:07:41;3.80;98.40
54158;DHT22;40065;49.894;10.358;2023-03-01T19:12:42;3.80;98.70
54158;DHT22;40065;49.894;10.358;2023-03-01T19:17:44;3.70;99.00
54158;DHT22;40065;49.894;10.358;2023-03-01T19:22:46;3.60;99.40
54158;DHT22;40065;49.894;10.358;2023-03-01T19:27:48;3.70;99.40
54158;DHT22;40065;49.894;10.358;2023-03-01T19:32:50;3.60;99.90
54158;DHT22;40065;49.894;10.358;2023-03-01T19:37:53;3.50;99.90
54158;DHT22;40065;49.894;10.358;2023-03-01T19:42:55;3.50;99.90
54158;DHT22;40065;49.894;10.358;2023-03-01T19:47:56;3.40;99.90
54158;DHT22;40065;49.894;10.358;2023-03-01T19:52:58;3.40;99.90
54158;DHT22;40065;49.894;10.358;2023-03-01T19:58:00;3.30;99.90
54158;DHT22;40065;49.894;10.358;2023-03-01T20:03:02;3.20;99.90
54158;DHT22;40065;49.894;10.358;2023-03-01T20:08:05;3.20;99.90
54158;DHT22;40065;49.894;10.358;2023-03-01T20:13:07;3.10;99.90
54158;DHT22;40065;49.894;10.358;2023-03-01T20:18:09;3.00;99.90
54158;DHT22;40065;49.894;10.358;2023-03-01T20:23:12;3.00;99.90
54158;DHT22;40065;49.894;10.358;2023-03-01T20:28:14;3.00;99.90
54158;DHT22;40065;49.894;10.358;2023-03-01T20:33:17;3.00;99.90
54158;DHT22;40065;49.894;10.358;2023-03-01T20:38:19;2.80;99.90
54158;DHT22;40065;49.894;10.358;2023-03-01T20:43:20;2.70;99.90
54158;DHT22;40065;49.894;10.358;2023-03-01T20:48:23;2.70;99.90
54158;DHT22;40065;49.894;10.358;2023-03-01T20:53:25;2.60;99.90
54158;DHT22;40065;49.894;10.358;2023-03-01T20:58:28;2.60;99.90
54158;DHT22;40065;49.894;10.358;2023-03-01T21:03:33;2.70;99.90
54158;DHT22;40065;49.894;10.358;2023-03-01T21:08:36;2.60;99.90
54158;DHT22;40065;49.894;10.358;2023-03-01T21:13:38;2.50;99.90
54158;DHT22;40065;49.894;10.358;2023-03-01T21:18:40;2.50;99.90
54158;DHT22;40065;49.894;10.358;2023-03-01T21:23:43;2.40;99.90
54158;DHT22;40065;49.894;10.358;2023-03-01T21:28:46;2.50;99.90
54158;DHT22;40065;49.894;10.358;2023-03-01T21:33:50;2.30;99.90
54158;DHT22;40065;49.894;10.358;2023-03-01T21:38:53;2.10;99.90
54158;DHT22;40065;49.894;10.358;2023-03-01T21:43:56;2.00;99.90
54158;DHT22;40065;49.894;10.358;2023-03-01T21:48:59;2.10;99.90
54158;DHT22;40065;49.894;10.358;2023-03-01T21:54:03;2.00;99.90
54158;DHT22;40065;49.894;10.358;2023-03-01T21:59:10;2.10;99.90
54158;DHT22;40065;49.894;10.358;2023-03-01T22:04:13;2.20;99.90
54158;DHT22;40065;49.894;10.358;2023-03-01T22:09:21;2.10;99.90
54158;DHT22;40065;49.894;10.358;2023-03-01T22:14:23;2.10;99.90
54158;DHT22;40065;49.894;10.358;2023-03-01T22:19:25;2.10;99.90
54158;DHT22;40065;49.894;10.358;2023-03-01T22:24:29;2.00;99.90
54158;DHT22;40065;49.894;10.358;2023-03-01T22:29:31;2.10;99.90
54158;DHT22;40065;49.894;10.358;2023-03-01T22:34:32;2.10;99.90
54158;DHT22;40065;49.894;10.358;2023-03-01T22:39:36;2.10;99.90
54158;DHT22;40065;49.894;10.358;2023-03-01T22:44:38;2.30;99.90
54158;DHT22;40065;49.894;10.358;2023-03-01T22:49:39;2.30;99.90
54158;DHT22;40065;49.894;10.358;2023-03-01T22:54:41;2.20;99.90
54158;DHT22;40065;49.894;10.358;2023-03-01T22:59:43;2.20;99.90
54158;DHT22;40065;49.894;10.358;2023-03-01T23:04:45;2.20;99.90
54158;DHT22;40065;49.894;10.358;2023-03-01T23:09:48;2.30;99.90
54158;DHT22;40065;49.894;10.358;2023-03-01T23:14:51;2.20;99.90
54158;DHT22;40065;49.894;10.358;2023-03-01T23:19:53;2.10;99.90
54158;DHT22;40065;49.894;10.358;2023-03-01T23:24:55;2.30;99.90
54158;DHT22;40065;49.894;10.358;2023-03-01T23:29:57;2.10;99.90
54158;DHT22;40065;49.894;10.358;2023-03-01T23:34:59;2.00;99.90
54158;DHT22;40065;49.894;10.358;2023-03-01T23:40:00;2.00;99.90
54158;DHT22;40065;49.894;10.358;2023-03-01T23:45:02;2.00;99.90
54158;DHT22;40065;49.894;10.358;2023-03-01T23:50:05;2.10;99.90
54158;DHT22;40065;49.894;10.358;2023-03-01T23:55:07;2.20;99.90
